Startpagina
METAR-TAF:

METAR-TAF

Vliegvelden :

Gibraltar, Gibraltar

Gibraltar Airport

breedte: 36-09N, lengte: 005-21W, hoogte: 5 m

Actueel weer

Dit bericht is 1 uur en het 20 minuten geleden gemaakt, om 19:50 UTC
Wind 2 kt uit het zuidwesten
Temperatuur 13°C
Vochtigheid 72%
Druk 1026 hPa
Zicht 10 km of meer

METAR: LXGB 161950Z AUTO 23002KT 9999 // NCD 13/08 Q1026

Tijdstip: 22:10 (21:10 UTC)

Verwachting

Dit bericht is 7 uur en het 33 minuten geleden gemaakt, om 13:37 UTC
Verwachting geldig van 16 om 15 UTC tot 16 om 22 UTC
Wind 4 kt uit het oosten
Zicht 10 km of meer
Weinig wolken op 2500 ft

TAF: LXGB 161337Z 1615/1622 10004KT 9999 FEW025

Waarnemingen en weersverwachtingen van meer dan 4000 vliegvelden (METAR en TAF).

De beschikbare stations zijn de gele en rode punten op de kaart.

Ga met uw muis naar het station om de naam te zien.

Klik dan om waarnemingen en weersverwachtingen te zien.

kaart wijzigen: klik op de groene knoppen met een zwart kruis om in te zoomen, op de groene knop met een streepje om uit te zoomen of op de groene pijlen voor aangrenzende kaarten.


METAR-TAF: